• Join FlightAware (Why Join?)
  • Login
  • US Flag 
01:26PM EDT


 

Airport Tracker/Info


-or-


 

Live Flight TrackerFlight Track Log ✈ ASQ5941 ✈ 11-Apr-2013 ✈ KORD - KAVP

Flight Track Log - Related Links

Times and Time Zones

All times are in EDT time to prevent confusion due to time zone crossing. See the ASQ5941 flight status page for this flight to view local times or setup timezone preferences in your user account.

Time Position Orientation Groundspeed Altitude Reporting Facility
EDT Latitude Longitude Course Direction KTS MPH feet Rate Location/Type
06:21PM 42.0000 -88.0000 80° East 240 276 3,600  Level Chicago TRACON
06:22PM 42.0667 -87.9500 29° Northeast 294 338 4,800 1,500 Climbing Chicago TRACON
06:23PM 42.1167 -87.8667 51° Northeast 304 350 6,700 1,920 Climbing Chicago TRACON
06:24PM 42.0631 -87.2818 78° East  Level FlightAware Approximate
06:24PM 42.1253 -87.8267 74° East 302 348 7,800  Level Chicago Center
06:25PM 42.0875 -87.1251 77° East  Level FlightAware Approximate
06:25PM 42.1281 -87.7211 88° East 283 326 9,900  Level Chicago Center
06:26PM 42.1041 -86.9673 80° East  Level FlightAware Approximate
06:26PM 42.1258 -87.6100 92° East 295 339 12,000  Level Chicago Center
06:27PM 42.1231 -87.5006 92° East 294 338 14,100 1,380 Climbing Chicago Center
06:28PM 42.1203 -87.3642 92° East 303 349 14,900 900 Climbing Chicago Center
06:29PM 42.1158 -87.2361 93° East 336 387 16,000 1,320 Climbing Chicago Center
06:30PM 42.1136 -87.1106 91° East 338 389 17,700 1,560 Climbing Chicago Center
06:31PM 42.1147 -86.9786 89° East 351 404 19,300 1,440 Climbing Chicago Center
06:32PM 42.1197 -86.8417 87° East 365 420 20,800 1,560 Climbing Chicago Center
06:33PM 42.1253 -86.6817 87° East 374 430 22,600 1,200 Climbing Chicago Center
06:34PM 42.1303 -86.5342 87° East 393 452 23,300 600 Climbing Chicago Center
06:35PM 42.1353 -86.3767 87° East 417 480 23,900 720 Climbing Chicago Center
06:36PM 42.1417 -86.2142 87° East 429 494 24,800 900 Climbing Chicago Center
06:37PM 42.1436 -86.0503 89° East 436 502 25,800 960 Climbing Chicago Center
06:38PM 42.1425 -85.8683 90° East 437 503 26,900 960 Climbing Chicago Center
06:39PM 42.1403 -85.7056 91° East 437 503 27,800 1,020 Climbing Chicago Center
06:40PM 42.1386 -85.5436 91° East 435 501 29,100 1,320 Climbing Chicago Center
06:41PM 42.1367 -85.3539 91° East 428 493 30,600 1,260 Climbing Chicago Center
06:42PM 42.1394 -85.2686 87° East 422 486 31,200 960 Climbing Cleveland Center
06:43PM 42.1375 -85.1089 91° East 422 486 32,200 900 Climbing Cleveland Center
06:44PM 42.1336 -84.9433 92° East 427 491 33,000 360 Climbing Cleveland Center
06:45PM 42.1272 -84.7803 93° East 432 497 33,000  Level Cleveland Center
06:46PM 42.1169 -84.6006 94° East 453 521 33,000  Level Cleveland Center
06:47PM 42.1086 -84.4153 93° East 470 541 33,000  Level Cleveland Center
06:48PM 42.0953 -84.2519 96° East 483 556 33,000  Level Cleveland Center
06:49PM 42.0831 -84.0331 94° East 489 563 33,000  Level Cleveland Center
06:50PM 42.0739 -83.8506 94° East 489 563 33,000  Level Cleveland Center
06:51PM 42.0644 -83.6628 94° East 494 568 33,000  Level Cleveland Center
06:52PM 42.0564 -83.4944 94° East 501 577 33,000  Level Cleveland Center
06:53PM 42.0442 -83.3150 95° East 495 570 33,000  Level Cleveland Center
06:54PM 42.0322 -83.1103 94° East 495 570 33,000  Level Cleveland Center
06:55PM 42.0194 -82.9225 95° East 500 575 33,000  Level Cleveland Center
06:56PM 42.0064 -82.7319 95° East 500 575 33,000  Level Cleveland Center
06:57PM 41.9972 -82.5472 94° East 500 575 33,000  Level Cleveland Center
06:58PM 41.9836 -82.3625 96° East 500 575 33,000  Level Cleveland Center
06:59PM 41.9697 -82.1750 96° East 500 575 33,000  Level Cleveland Center
07:00PM 41.9597 -81.9878 94° East 506 582 33,000  Level Cleveland Center
07:01PM 41.9453 -81.7975 96° East 501 577 33,000  Level Cleveland Center
07:02PM 41.9322 -81.6325 96° East 501 577 33,000  Level Cleveland Center
07:03PM 41.9172 -81.4397 96° East 507 583 33,000  Level Cleveland Center
07:04PM 41.9039 -81.2528 95° East 502 578 33,000  Level Cleveland Center
07:05PM 41.8881 -81.0628 96° East 509 586 33,000  Level Cleveland Center
07:06PM 41.8700 -80.8758 97° East 509 586 33,000  Level Cleveland Center
07:07PM 41.8453 -80.6722 99° East 504 580 33,000  Level Cleveland Center
07:08PM 41.8244 -80.4883 99° East 504 580 33,000  Level Cleveland Center
07:09PM 41.8033 -80.3047 99° East 504 580 33,000  Level Cleveland Center
07:10PM 41.7819 -80.1236 99° East 504 580 33,000  Level Cleveland Center
07:11PM 41.7600 -79.9344 99° East 504 580 33,000  Level Cleveland Center
07:12PM 41.7403 -79.7511 98° East 504 580 33,000  Level Cleveland Center
07:13PM 41.7200 -79.5844 99° East 504 580 33,000 -240 Level Cleveland Center
07:14PM 41.6975 -79.4014 99° East 504 580 32,600 -840 Descending Cleveland Center
07:15PM 41.6722 -79.1989 99° East 504 580 31,400 -1,020 Descending Cleveland Center
07:16PM 41.6514 -79.0297 99° East 504 580 30,600 -900 Descending Cleveland Center
07:17PM 41.6278 -78.8442 100° East 504 580 29,700 -960 Descending Cleveland Center
07:18PM 41.6019 -78.6617 101° East 504 580 28,700 -1,020 Descending Cleveland Center
07:20PM 41.5631 -78.3458 99° East 481 554 27,000 -1,020 Descending New York Center
07:21PM 41.5392 -78.1658 100° East 481 554 26,000 -1,020 Descending New York Center
07:22PM 41.5167 -77.9858 99° East 481 554 25,000 -1,020 Descending New York Center
07:23PM 41.5028 -77.8042 96° East 487 560 24,000 -1,020 Descending New York Center
07:24PM 41.4853 -77.6003 96° East 492 566 23,000 -1,020 Descending New York Center
07:25PM 41.4728 -77.4189 95° East 492 566 22,000 -1,500 Descending New York Center
07:26PM 41.4578 -77.2375 96° East 492 566 20,000 -2,280 Descending New York Center
07:27PM 41.4458 -77.0703 95° East 476 548 17,500 -2,460 Descending New York Center
07:28PM 41.4353 -76.9142 95° East 448 516 15,200 -1,980 Descending New York Center
07:29PM 41.4239 -76.7747 96° East 416 479 13,700 -1,560 Descending New York Center
07:30PM 41.4136 -76.6467 96° East 370 426 12,100 -1,500 Descending New York Center
07:31PM 41.4042 -76.5406 97° East 332 382 10,800 -1,260 Descending New York Center
07:32PM 41.3969 -76.4294 95° East 311 358 9,700 -900 Descending New York Center
07:33PM 41.3861 -76.3042 97° East 306 352 9,000 -600 Descending New York Center
07:34PM 41.3789 -76.1928 95° East 306 352 8,500 -1,200 Descending New York Center
07:35PM 41.3708 -76.0928 96° East 306 352 6,700 -1,740 Descending New York Center
07:36PM 41.3258 -76.0283 133° Southeast 242 278 5,100 -1,380 Descending New York Center
07:37PM 41.2597 -76.0150 171° South 222 255 4,000 -600 Descending New York Center
07:38PM 41.1931 -76.0153 180° South 230 265 4,000  Level New York Center
07:39PM 41.1417 -76.0003 168° South 223 257 4,000  Level New York Center
07:40PM 41.1297 -75.9386 104° East 168 193 4,000  Level New York Center
07:41PM 41.1722 -75.8758 48° Northeast 159 183 4,000 -240 Level New York Center
07:42PM 41.2219 -75.8300 35° Northeast 193 222 3,600 -420 Descending New York Center